createdAt,value
2018-04-08T00:00:54.445Z,33.40
2018-04-08T00:03:22.835Z,33.30
2018-04-08T00:05:51.292Z,33.50
2018-04-08T00:08:20.475Z,33.50
2018-04-08T00:10:48.857Z,33.40
2018-04-08T00:13:17.292Z,33.30
2018-04-08T00:15:46.452Z,33.70
2018-04-08T00:18:14.874Z,33.50
2018-04-08T00:20:43.292Z,33.90
2018-04-08T00:23:11.757Z,34.00
2018-04-08T00:25:40.104Z,34.10
2018-04-08T00:28:08.513Z,34.60
2018-04-08T00:30:36.911Z,34.70
2018-04-08T00:33:05.294Z,35.00
2018-04-08T00:35:33.679Z,34.90
2018-04-08T00:38:02.511Z,34.50
2018-04-08T00:40:30.968Z,34.60
2018-04-08T00:42:59.363Z,34.70
2018-04-08T00:45:28.523Z,35.10
2018-04-08T00:47:56.940Z,34.90
2018-04-08T00:50:25.320Z,35.30
2018-04-08T00:52:53.739Z,34.90
2018-04-08T00:55:22.155Z,35.50
2018-04-08T00:57:50.886Z,35.30
2018-04-08T01:00:19.267Z,35.40
2018-04-08T01:02:48.433Z,35.90
2018-04-08T01:05:16.818Z,35.80
2018-04-08T01:07:45.176Z,35.60
2018-04-08T01:10:14.330Z,36.10
2018-04-08T01:12:42.732Z,36.10
2018-04-08T01:15:11.104Z,35.90
2018-04-08T01:17:39.599Z,36.30
2018-04-08T01:20:08.009Z,36.50
2018-04-08T01:22:36.419Z,36.70
2018-04-08T01:25:04.835Z,36.20
2018-04-08T01:27:33.211Z,36.30
2018-04-08T01:30:01.628Z,36.40
2018-04-08T01:32:30.142Z,36.30
2018-04-08T01:34:58.607Z,36.20
2018-04-08T01:37:26.969Z,36.40
2018-04-08T01:39:55.355Z,36.60
2018-04-08T01:42:23.727Z,36.60
2018-04-08T01:44:52.887Z,37.20
2018-04-08T01:47:21.272Z,37.20
2018-04-08T01:49:49.672Z,36.80
2018-04-08T01:52:18.060Z,37.10
2018-04-08T01:54:46.456Z,37.30
2018-04-08T01:57:14.861Z,37.30
2018-04-08T01:59:43.302Z,37.70
2018-04-08T02:02:11.705Z,37.50
2018-04-08T02:04:40.177Z,37.40
2018-04-08T02:07:08.554Z,37.80
2018-04-08T02:09:37.239Z,38.30
2018-04-08T02:12:05.727Z,38.50
2018-04-08T02:14:35.024Z,38.30
2018-04-08T02:17:04.360Z,38.40
2018-04-08T02:22:01.403Z,38.10
2018-04-08T02:24:29.763Z,38.90
2018-04-08T02:26:58.200Z,40.40
2018-04-08T02:29:26.571Z,41.40
2018-04-08T02:31:54.959Z,42.50
2018-04-08T02:34:23.329Z,42.20
2018-04-08T02:36:51.716Z,42.00
2018-04-08T02:39:20.100Z,42.30
2018-04-08T02:41:49.231Z,42.40
2018-04-08T02:44:17.822Z,42.30
2018-04-08T02:46:46.217Z,41.80
2018-04-08T02:49:14.600Z,42.00
2018-04-08T02:51:42.982Z,41.70
2018-04-08T02:54:11.364Z,41.20
2018-04-08T02:56:39.809Z,41.30
2018-04-08T02:59:08.216Z,41.20
2018-04-08T03:01:36.987Z,40.80
2018-04-08T03:04:05.416Z,41.10
2018-04-08T03:06:33.801Z,41.10
2018-04-08T03:09:03.000Z,41.10
2018-04-08T03:11:32.526Z,40.90
2018-04-08T03:14:00.879Z,40.80
2018-04-08T03:16:30.035Z,40.50
2018-04-08T03:18:58.481Z,40.40
2018-04-08T03:21:26.841Z,40.80
2018-04-08T03:23:55.270Z,41.40
2018-04-08T03:26:23.652Z,40.60
2018-04-08T03:28:52.063Z,40.80
2018-04-08T03:31:20.572Z,41.00
2018-04-08T03:33:48.944Z,41.00
2018-04-08T03:36:17.331Z,40.90
2018-04-08T03:38:45.741Z,41.10
2018-04-08T03:41:14.102Z,41.30
2018-04-08T03:43:42.569Z,41.20
2018-04-08T03:46:11.123Z,41.40
2018-04-08T03:48:39.477Z,41.50
2018-04-08T03:51:07.896Z,41.60
2018-04-08T03:53:36.277Z,41.30
2018-04-08T03:56:04.860Z,41.70
2018-04-08T03:58:34.076Z,41.70
2018-04-08T04:01:02.487Z,41.60
2018-04-08T04:03:30.858Z,41.60
2018-04-08T04:06:00.000Z,41.50
2018-04-08T04:08:28.389Z,41.50
2018-04-08T04:10:56.829Z,41.70
2018-04-08T04:13:25.233Z,41.80
2018-04-08T04:15:54.367Z,42.00
2018-04-08T04:18:34.820Z,41.90
2018-04-08T04:21:15.240Z,42.20
2018-04-08T04:23:56.135Z,42.20
2018-04-08T04:26:31.479Z,42.10
2018-04-08T04:28:59.863Z,42.50
2018-04-08T04:31:28.265Z,42.90
2018-04-08T04:33:56.619Z,43.30
2018-04-08T04:36:25.016Z,44.80
2018-04-08T04:38:53.499Z,45.80
2018-04-08T04:41:21.913Z,46.60
2018-04-08T04:43:50.292Z,47.50
2018-04-08T04:46:19.423Z,48.00
2018-04-08T04:48:47.912Z,48.00
2018-04-08T04:51:16.822Z,47.40
2018-04-08T04:53:45.216Z,47.50
2018-04-08T04:56:13.651Z,46.60
2018-04-08T04:58:42.036Z,46.90
2018-04-08T05:01:10.421Z,46.30
2018-04-08T05:03:38.865Z,46.60
2018-04-08T05:06:08.115Z,46.20
2018-04-08T05:08:36.540Z,46.10
2018-04-08T05:11:05.705Z,45.50
2018-04-08T05:13:34.179Z,45.60
2018-04-08T05:16:02.573Z,46.60
2018-04-08T05:18:30.956Z,45.70
2018-04-08T05:20:59.341Z,46.60
2018-04-08T05:23:28.477Z,46.10
2018-04-08T05:25:56.865Z,46.10
2018-04-08T05:28:25.234Z,46.30
2018-04-08T05:30:53.775Z,46.20
2018-04-08T05:33:22.199Z,46.30
2018-04-08T05:35:50.594Z,46.40
2018-04-08T05:38:19.032Z,45.70
2018-04-08T05:40:48.021Z,45.90
2018-04-08T05:43:17.020Z,46.10
2018-04-08T05:45:45.425Z,46.10
2018-04-08T05:48:13.815Z,46.10
2018-04-08T05:50:42.295Z,46.00
2018-04-08T05:53:10.700Z,45.70
2018-04-08T05:55:39.090Z,45.50
2018-04-08T05:58:08.329Z,44.90
2018-04-08T06:00:36.873Z,44.90
2018-04-08T06:03:06.057Z,43.70
2018-04-08T06:05:34.466Z,43.60
2018-04-08T06:08:02.856Z,44.30
2018-04-08T06:10:31.526Z,44.10
2018-04-08T06:13:00.651Z,44.20
2018-04-08T06:15:29.023Z,44.20
2018-04-08T06:17:57.416Z,43.80
2018-04-08T06:20:25.796Z,43.60
2018-04-08T06:22:54.173Z,44.10
2018-04-08T06:25:22.580Z,43.70
2018-04-08T06:27:50.951Z,43.70
2018-04-08T06:30:19.369Z,43.50
2018-04-08T06:32:48.604Z,44.20
2018-04-08T06:35:16.968Z,44.20
2018-04-08T06:37:45.474Z,44.40
2018-04-08T06:40:14.007Z,43.90
2018-04-08T06:42:42.481Z,43.60
2018-04-08T06:45:10.995Z,43.70
2018-04-08T06:47:39.388Z,43.80
2018-04-08T06:50:07.840Z,43.90
2018-04-08T06:52:36.231Z,43.30
2018-04-08T06:55:04.620Z,42.60
2018-04-08T06:57:33.456Z,42.60
2018-04-08T07:00:02.609Z,42.30
2018-04-08T07:02:31.000Z,42.30
2018-04-08T07:04:59.476Z,42.10
2018-04-08T07:07:27.972Z,42.50
2018-04-08T07:09:56.355Z,42.50
2018-04-08T07:12:24.722Z,42.50
2018-04-08T07:14:53.117Z,42.60
2018-04-08T07:17:22.548Z,43.00
2018-04-08T07:19:51.000Z,42.80
2018-04-08T07:22:20.404Z,42.00
2018-04-08T07:24:49.573Z,41.30
2018-04-08T07:27:18.039Z,41.10
2018-04-08T07:29:46.429Z,41.10
2018-04-08T07:32:14.823Z,40.00
2018-04-08T07:34:43.274Z,39.70
2018-04-08T07:37:11.718Z,40.40
2018-04-08T07:39:40.099Z,40.20
2018-04-08T07:42:08.712Z,39.60
2018-04-08T07:44:37.139Z,39.10
2018-04-08T07:47:06.312Z,38.10
2018-04-08T07:49:34.684Z,38.00
2018-04-08T07:52:03.239Z,38.90
2018-04-08T07:54:32.147Z,37.40
2018-04-08T07:57:00.545Z,37.70
2018-04-08T07:59:28.966Z,36.20
2018-04-08T08:01:57.355Z,36.40
2018-04-08T08:04:25.744Z,36.50
2018-04-08T08:06:54.860Z,36.10
2018-04-08T08:09:23.264Z,36.00
2018-04-08T08:11:52.378Z,35.70
2018-04-08T08:14:20.793Z,35.80
2018-04-08T08:16:50.128Z,35.10
2018-04-08T08:19:18.533Z,35.70
2018-04-08T08:21:47.703Z,34.50
2018-04-08T08:24:16.179Z,34.50
2018-04-08T08:26:44.588Z,34.50
2018-04-08T08:29:13.770Z,34.70
2018-04-08T08:31:43.003Z,34.40
2018-04-08T08:34:11.393Z,34.40
2018-04-08T08:36:39.802Z,34.50
2018-04-08T08:39:08.289Z,33.40
2018-04-08T08:41:36.684Z,36.40
2018-04-08T08:44:05.853Z,35.60
2018-04-08T08:46:34.356Z,35.60
2018-04-08T08:49:02.885Z,35.30
2018-04-08T08:51:31.411Z,33.80
2018-04-08T08:53:59.799Z,34.00
2018-04-08T08:56:28.977Z,33.40
2018-04-08T08:58:57.450Z,33.40
2018-04-08T09:01:25.838Z,34.80
2018-04-08T09:03:54.278Z,33.50
2018-04-08T09:06:22.699Z,34.80
2018-04-08T09:08:51.100Z,33.20
2018-04-08T09:11:20.261Z,32.80
2018-04-08T09:13:48.695Z,32.80
2018-04-08T09:16:17.071Z,32.80
2018-04-08T09:18:45.516Z,31.80
2018-04-08T09:21:20.244Z,33.70
2018-04-08T09:23:49.516Z,33.50
2018-04-08T09:26:17.935Z,34.20
2018-04-08T09:28:47.105Z,32.10
2018-04-08T09:31:15.483Z,32.10
2018-04-08T09:33:44.846Z,33.00
2018-04-08T09:36:13.261Z,32.20
2018-04-08T09:38:41.634Z,32.30
2018-04-08T09:41:10.053Z,32.40
2018-04-08T09:43:38.439Z,32.30
2018-04-08T09:46:07.144Z,33.80
2018-04-08T09:48:35.783Z,33.40
2018-04-08T09:51:04.937Z,31.30
2018-04-08T09:53:33.351Z,31.30
2018-04-08T09:56:01.742Z,33.00
2018-04-08T09:58:30.902Z,32.00
2018-04-08T10:01:15.056Z,31.80
2018-04-08T10:03:46.950Z,32.90
2018-04-08T10:06:16.406Z,31.00
2018-04-08T10:08:44.794Z,31.00
2018-04-08T10:11:13.159Z,30.50
2018-04-08T10:13:41.569Z,32.70
2018-04-08T10:16:10.417Z,33.00
2018-04-08T10:18:38.830Z,31.00
2018-04-08T10:21:07.221Z,31.00
2018-04-08T10:23:36.371Z,31.20
2018-04-08T10:26:04.752Z,31.20
2018-04-08T10:28:33.183Z,30.70
2018-04-08T10:31:02.361Z,31.40
2018-04-08T10:33:30.884Z,31.40
2018-04-08T10:35:59.285Z,31.00
2018-04-08T10:38:27.687Z,31.20
2018-04-08T10:40:56.076Z,31.50
2018-04-08T10:43:24.485Z,32.40
2018-04-08T10:45:52.908Z,31.30
2018-04-08T10:48:21.312Z,32.50
2018-04-08T10:50:49.729Z,29.80
2018-04-08T10:53:18.159Z,33.20
2018-04-08T10:55:46.719Z,31.30
2018-04-08T10:58:19.194Z,30.70
2018-04-08T11:00:47.608Z,31.80
2018-04-08T11:03:16.012Z,30.00
2018-04-08T11:05:45.160Z,30.80
2018-04-08T11:08:13.576Z,30.70
2018-04-08T11:10:42.729Z,29.50
2018-04-08T11:13:11.114Z,29.50
2018-04-08T11:15:39.520Z,30.20
2018-04-08T11:18:07.928Z,30.50
2018-04-08T11:20:36.345Z,29.90
2018-04-08T11:23:04.729Z,29.80
2018-04-08T11:25:33.091Z,29.90
2018-04-08T11:28:01.467Z,29.40
2018-04-08T11:30:30.623Z,28.50
2018-04-08T11:32:59.003Z,28.50
2018-04-08T11:35:27.394Z,29.10
2018-04-08T11:37:55.775Z,28.80
2018-04-08T11:40:24.212Z,29.60
2018-04-08T11:42:52.740Z,28.70
2018-04-08T11:45:21.136Z,28.70
2018-04-08T11:47:49.504Z,28.40
2018-04-08T11:50:17.900Z,26.60
2018-04-08T11:52:46.319Z,28.10
2018-04-08T11:55:15.476Z,27.70
2018-04-08T11:57:43.840Z,27.60
2018-04-08T12:00:12.211Z,26.40
2018-04-08T12:02:40.600Z,26.30
2018-04-08T12:05:08.986Z,25.30
2018-04-08T12:07:37.425Z,26.50
2018-04-08T12:10:05.800Z,26.00
2018-04-08T12:12:34.257Z,26.40
2018-04-08T12:15:03.520Z,25.90
2018-04-08T12:17:32.663Z,24.80
2018-04-08T12:20:01.099Z,24.70
2018-04-08T12:22:30.287Z,25.80
2018-04-08T12:24:58.762Z,25.80
2018-04-08T12:27:27.164Z,25.20
2018-04-08T12:29:57.024Z,26.10
2018-04-08T12:32:25.709Z,26.60
2018-04-08T12:34:54.398Z,25.10
2018-04-08T12:37:22.773Z,24.20
2018-04-08T12:39:51.160Z,23.20
2018-04-08T12:42:19.548Z,24.20
2018-04-08T12:44:48.323Z,24.10
2018-04-08T12:47:16.700Z,23.10
2018-04-08T12:49:45.084Z,21.90
2018-04-08T12:52:13.491Z,22.90
2018-04-08T12:54:42.662Z,21.70
2018-04-08T12:57:11.051Z,21.60
2018-04-08T12:59:39.419Z,22.50
2018-04-08T13:02:07.796Z,23.20
2018-04-08T13:04:36.179Z,23.80
2018-04-08T13:07:04.770Z,23.40
2018-04-08T13:09:33.916Z,22.80
2018-04-08T13:12:03.164Z,21.70
2018-04-08T13:14:31.535Z,21.70
2018-04-08T13:17:00.062Z,21.40
2018-04-08T13:19:28.455Z,23.30
2018-04-08T13:21:57.610Z,22.10
2018-04-08T13:24:26.039Z,22.10
2018-04-08T13:26:54.461Z,21.60
2018-04-08T13:29:22.883Z,21.00
2018-04-08T13:31:52.089Z,22.40
2018-04-08T13:34:21.264Z,22.30
2018-04-08T13:36:49.656Z,22.30
2018-04-08T13:39:18.822Z,22.00
2018-04-08T13:41:47.192Z,22.00
2018-04-08T13:44:15.586Z,22.00
2018-04-08T13:46:43.984Z,22.60
2018-04-08T13:49:12.384Z,22.90
2018-04-08T13:51:40.801Z,24.10
2018-04-08T13:54:09.183Z,22.10
2018-04-08T13:56:37.600Z,21.80
2018-04-08T13:59:06.804Z,21.40
2018-04-08T14:01:35.951Z,21.70
2018-04-08T14:04:04.319Z,21.50
2018-04-08T14:06:32.753Z,22.00
2018-04-08T14:09:02.171Z,22.60
2018-04-08T14:11:30.559Z,22.50
2018-04-08T14:13:58.936Z,22.20
2018-04-08T14:16:27.323Z,22.40
2018-04-08T14:18:55.876Z,22.50
2018-04-08T14:21:24.308Z,24.30
2018-04-08T14:23:52.695Z,23.50
2018-04-08T14:26:21.880Z,22.90
2018-04-08T14:28:51.272Z,23.40
2018-04-08T14:31:19.689Z,23.40
2018-04-08T14:33:48.077Z,22.90
2018-04-08T14:36:17.271Z,21.00
2018-04-08T14:38:45.632Z,21.00
2018-04-08T14:41:14.347Z,22.20
2018-04-08T14:43:43.318Z,23.00
2018-04-08T14:46:11.752Z,23.60
2018-04-08T14:48:40.153Z,23.60
2018-04-08T14:51:08.633Z,22.20
2018-04-08T14:53:37.033Z,23.60
2018-04-08T14:56:05.489Z,23.00
2018-04-08T14:58:33.917Z,24.10
2018-04-08T15:01:03.058Z,22.90
2018-04-08T15:03:31.500Z,22.90
2018-04-08T15:06:00.737Z,23.60
2018-04-08T15:08:29.169Z,23.30
2018-04-08T15:10:57.591Z,24.10
2018-04-08T15:13:25.990Z,24.10
2018-04-08T15:15:54.358Z,24.40
2018-04-08T15:18:23.484Z,24.10
2018-04-08T15:20:53.075Z,23.90
2018-04-08T15:23:21.672Z,22.40
2018-04-08T15:25:50.819Z,22.90
2018-04-08T15:28:19.244Z,22.90
2018-04-08T15:30:48.491Z,23.90
2018-04-08T15:33:17.086Z,23.90
2018-04-08T15:35:45.525Z,22.90
2018-04-08T15:38:13.949Z,23.30
2018-04-08T15:40:42.328Z,23.70
2018-04-08T15:43:10.704Z,22.80
2018-04-08T15:45:39.113Z,23.60
2018-04-08T15:48:07.508Z,23.60
2018-04-08T15:50:35.883Z,23.60
2018-04-08T15:53:05.191Z,23.70
2018-04-08T15:55:33.620Z,23.60
2018-04-08T15:58:02.003Z,23.50
2018-04-08T16:00:30.394Z,22.80
2018-04-08T16:02:58.808Z,24.30
2018-04-08T16:05:27.369Z,23.00
2018-04-08T16:07:57.454Z,23.50
2018-04-08T16:10:25.811Z,23.50
2018-04-08T16:12:54.219Z,23.50
2018-04-08T16:15:22.657Z,24.90
2018-04-08T16:17:51.807Z,24.90
2018-04-08T16:20:20.195Z,24.30
2018-04-08T16:22:48.682Z,24.50
2018-04-08T16:25:17.097Z,24.10
2018-04-08T16:27:45.681Z,23.40
2018-04-08T16:30:14.827Z,24.20
2018-04-08T16:32:43.992Z,24.60
2018-04-08T16:35:12.363Z,24.50
2018-04-08T16:37:40.743Z,24.60
2018-04-08T16:40:09.154Z,24.70
2018-04-08T16:42:37.532Z,24.80
2018-04-08T16:45:05.921Z,25.00
2018-04-08T16:47:34.296Z,25.00
2018-04-08T16:50:03.985Z,24.80
2018-04-08T16:52:32.389Z,24.80
2018-04-08T16:55:00.771Z,25.70
2018-04-08T16:57:29.907Z,26.00
2018-04-08T16:59:58.283Z,25.90
2018-04-08T17:02:26.662Z,26.20
2018-04-08T17:04:55.419Z,26.20
2018-04-08T17:07:23.835Z,26.10
2018-04-08T17:09:52.059Z,26.50
2018-04-08T17:12:22.070Z,27.00
2018-04-08T17:14:51.203Z,27.60
2018-04-08T17:17:19.585Z,27.50
2018-04-08T17:19:47.992Z,27.00
2018-04-08T17:22:16.464Z,27.10
2018-04-08T17:24:44.838Z,27.00
2018-04-08T17:27:13.255Z,27.50
2018-04-08T17:29:42.072Z,28.10
2018-04-08T17:32:10.489Z,27.70
2018-04-08T17:34:38.952Z,28.10
2018-04-08T17:37:07.804Z,28.10
2018-04-08T17:39:36.944Z,28.00
2018-04-08T17:42:05.715Z,28.00
2018-04-08T17:44:34.961Z,28.00
2018-04-08T17:47:03.312Z,28.00
2018-04-08T17:49:31.688Z,28.80
2018-04-08T17:52:00.078Z,28.60
2018-04-08T17:54:29.243Z,29.00
2018-04-08T17:56:57.613Z,29.00
2018-04-08T17:59:26.007Z,29.00
2018-04-08T18:01:54.389Z,29.00
2018-04-08T18:04:22.779Z,29.30
2018-04-08T18:06:51.135Z,29.70
2018-04-08T18:09:19.764Z,30.40
2018-04-08T18:11:48.143Z,30.60
2018-04-08T18:14:16.515Z,30.80
2018-04-08T18:16:45.003Z,30.70
2018-04-08T18:19:13.400Z,31.00
2018-04-08T18:21:42.550Z,31.40
2018-04-08T18:24:10.956Z,31.40
2018-04-08T18:26:40.096Z,31.70
2018-04-08T18:29:08.527Z,31.60
2018-04-08T18:31:36.954Z,30.90
2018-04-08T18:34:05.499Z,31.00
2018-04-08T18:36:33.869Z,30.80
2018-04-08T18:39:02.299Z,30.90
2018-04-08T18:41:31.422Z,32.70
2018-04-08T18:44:00.600Z,32.10
2018-04-08T18:46:28.983Z,32.00
2018-04-08T18:48:57.412Z,30.80
2018-04-08T18:51:26.592Z,30.80
2018-04-08T18:53:55.746Z,30.70
2018-04-08T18:56:24.136Z,30.60
2018-04-08T18:58:53.312Z,31.10
2018-04-08T19:01:22.419Z,31.10
2018-04-08T19:03:50.827Z,31.40
2018-04-08T19:06:19.212Z,32.00
2018-04-08T19:08:47.905Z,32.20
2018-04-08T19:11:17.068Z,34.30
2018-04-08T19:13:45.624Z,34.30
2018-04-08T19:16:14.129Z,35.30
2018-04-08T19:18:42.561Z,35.10
2018-04-08T19:21:11.694Z,34.90
2018-04-08T19:23:40.095Z,34.90
2018-04-08T19:26:10.032Z,34.80
2018-04-08T19:28:39.205Z,34.00
2018-04-08T19:31:07.697Z,33.90
2018-04-08T19:33:36.098Z,33.90
2018-04-08T19:36:05.327Z,35.10
2018-04-08T19:38:33.741Z,35.10
2018-04-08T19:41:02.119Z,35.50
2018-04-08T19:43:30.514Z,35.00
2018-04-08T19:45:58.908Z,34.20
2018-04-08T19:48:28.096Z,33.90
2018-04-08T19:50:57.268Z,33.90
2018-04-08T19:53:25.682Z,33.80
2018-04-08T19:55:54.841Z,35.40
2018-04-08T19:58:23.254Z,35.40
2018-04-08T20:00:52.413Z,35.70
2018-04-08T20:03:21.100Z,35.70
2018-04-08T20:05:49.501Z,36.10
2018-04-08T20:08:17.871Z,36.20
2018-04-08T20:10:47.045Z,35.70
2018-04-08T20:13:16.228Z,34.40
2018-04-08T20:15:44.697Z,34.30
2018-04-08T20:18:13.134Z,34.40
2018-04-08T20:20:42.280Z,34.50
2018-04-08T20:23:10.764Z,34.50
2018-04-08T20:25:39.193Z,34.30
2018-04-08T20:28:08.378Z,34.00
2018-04-08T20:30:36.980Z,34.00
2018-04-08T20:33:06.164Z,34.20
2018-04-08T20:35:34.631Z,34.20
2018-04-08T20:38:04.088Z,33.90
2018-04-08T20:40:32.503Z,33.90
2018-04-08T20:43:00.937Z,35.00
2018-04-08T20:45:30.192Z,34.20
2018-04-08T20:47:58.799Z,34.20
2018-04-08T20:50:27.951Z,34.70
2018-04-08T20:52:56.561Z,34.60
2018-04-08T20:55:24.996Z,34.60
2018-04-08T20:57:53.858Z,35.60
2018-04-08T21:00:23.025Z,35.80
2018-04-08T21:02:51.845Z,35.80
2018-04-08T21:05:20.231Z,36.10
2018-04-08T21:07:48.609Z,35.90
2018-04-08T21:10:17.844Z,35.90
2018-04-08T21:12:46.254Z,35.80
2018-04-08T21:15:15.667Z,35.80
2018-04-08T21:17:44.820Z,35.80
2018-04-08T21:20:13.204Z,35.70
2018-04-08T21:22:41.607Z,35.60
2018-04-08T21:25:10.009Z,35.60
2018-04-08T21:27:38.393Z,35.70
2018-04-08T21:30:06.781Z,35.50
2018-04-08T21:32:35.615Z,35.50
2018-04-08T21:35:03.994Z,35.50
2018-04-08T21:37:32.375Z,35.50
2018-04-08T21:40:00.769Z,35.90
2018-04-08T21:42:29.907Z,35.70
2018-04-08T21:44:58.303Z,35.60
2018-04-08T21:47:26.708Z,36.00
2018-04-08T21:49:55.094Z,35.80
2018-04-08T21:52:24.301Z,36.20
2018-04-08T21:54:53.463Z,36.40
2018-04-08T21:57:22.582Z,36.50
2018-04-08T21:59:51.735Z,36.60
2018-04-08T22:02:20.097Z,36.50
2018-04-08T22:04:48.890Z,36.30
2018-04-08T22:07:17.316Z,36.50
2018-04-08T22:09:45.725Z,36.50
2018-04-08T22:12:14.180Z,37.60
2018-04-08T22:14:42.632Z,36.80
2018-04-08T22:17:11.036Z,37.00
2018-04-08T22:19:40.172Z,37.00
2018-04-08T22:22:08.564Z,37.00
2018-04-08T22:24:36.935Z,37.30
2018-04-08T22:27:05.446Z,37.90
2018-04-08T22:29:34.044Z,37.70
2018-04-08T22:32:02.622Z,37.80
2018-04-08T22:34:30.995Z,38.40
2018-04-08T22:36:59.392Z,38.20
2018-04-08T22:39:28.557Z,38.20
2018-04-08T22:41:57.069Z,38.20
2018-04-08T22:44:26.230Z,38.80
2018-04-08T22:46:55.414Z,38.60
2018-04-08T22:49:23.789Z,38.60
2018-04-08T22:51:52.177Z,39.00
2018-04-08T22:54:20.558Z,39.10
2018-04-08T22:56:48.944Z,39.40
2018-04-08T22:59:17.355Z,39.40
2018-04-08T23:01:46.808Z,40.40
2018-04-08T23:04:15.311Z,40.40
2018-04-08T23:06:43.715Z,40.60
2018-04-08T23:09:13.145Z,40.40
2018-04-08T23:11:41.572Z,40.40
2018-04-08T23:14:09.913Z,40.30
2018-04-08T23:16:38.513Z,41.50
2018-04-08T23:19:06.890Z,41.50
2018-04-08T23:21:36.021Z,40.50
2018-04-08T23:24:04.389Z,40.50
2018-04-08T23:26:32.751Z,40.50
2018-04-08T23:29:01.368Z,40.60
2018-04-08T23:31:30.501Z,40.60
2018-04-08T23:33:59.783Z,40.60
2018-04-08T23:36:28.225Z,40.60
2018-04-08T23:38:57.364Z,40.50
2018-04-08T23:41:25.732Z,40.60
2018-04-08T23:43:54.127Z,40.50
2018-04-08T23:46:22.512Z,40.60
2018-04-08T23:48:50.908Z,40.70
2018-04-08T23:51:19.415Z,41.00
2018-04-08T23:53:47.812Z,40.60
2018-04-08T23:56:16.400Z,40.70
2018-04-08T23:58:45.556Z,41.40
